createdAt,value
2023-05-08T00:00:38.468Z,13.44
2023-05-08T00:01:38.675Z,13.43
2023-05-08T00:02:38.910Z,13.46
2023-05-08T00:03:39.283Z,13.43
2023-05-08T00:04:39.183Z,13.41
2023-05-08T00:05:39.335Z,13.40
2023-05-08T00:06:39.519Z,13.38
2023-05-08T00:07:39.680Z,13.38
2023-05-08T00:08:39.852Z,13.38
2023-05-08T00:09:40.036Z,13.37
2023-05-08T00:10:40.206Z,13.37
2023-05-08T00:11:40.406Z,13.40
2023-05-08T00:12:40.614Z,13.35
2023-05-08T00:13:40.733Z,13.35
2023-05-08T00:14:40.931Z,13.31
2023-05-08T00:15:41.121Z,13.30
2023-05-08T00:16:41.302Z,13.28
2023-05-08T00:17:41.447Z,13.31
2023-05-08T00:18:41.621Z,13.28
2023-05-08T00:19:41.812Z,13.30
2023-05-08T00:20:41.987Z,13.27
2023-05-08T00:21:42.172Z,13.23
2023-05-08T00:22:42.331Z,13.27
2023-05-08T00:23:42.539Z,13.20
2023-05-08T00:24:42.689Z,13.25
2023-05-08T00:25:42.874Z,13.23
2023-05-08T00:26:43.022Z,13.20
2023-05-08T00:27:43.200Z,13.19
2023-05-08T00:28:43.402Z,13.20
2023-05-08T00:29:43.684Z,13.18
2023-05-08T00:30:43.781Z,13.18
2023-05-08T00:31:44.008Z,13.15
2023-05-08T00:32:44.078Z,13.15
2023-05-08T00:33:44.293Z,13.18
2023-05-08T00:34:44.438Z,13.13
2023-05-08T00:35:44.627Z,13.12
2023-05-08T00:36:44.786Z,13.09
2023-05-08T00:37:44.972Z,13.12
2023-05-08T00:38:45.175Z,13.11
2023-05-08T00:39:45.340Z,13.11
2023-05-08T00:40:45.510Z,13.11
2023-05-08T00:41:45.712Z,13.11
2023-05-08T00:42:45.897Z,13.09
2023-05-08T00:43:46.074Z,13.07
2023-05-08T00:44:46.212Z,13.05
2023-05-08T00:45:46.427Z,13.05
2023-05-08T00:46:46.663Z,13.01
2023-05-08T00:47:46.797Z,13.01
2023-05-08T00:48:46.955Z,12.98
2023-05-08T00:49:47.092Z,13.03
2023-05-08T00:50:47.273Z,12.97
2023-05-08T00:51:47.461Z,13.00
2023-05-08T00:52:47.620Z,12.98
2023-05-08T00:53:47.820Z,12.98
2023-05-08T00:54:47.983Z,12.97
2023-05-08T00:55:48.168Z,12.91
2023-05-08T00:56:48.352Z,12.95
2023-05-08T00:57:48.518Z,12.91
2023-05-08T00:58:48.722Z,12.93
2023-05-08T00:59:48.867Z,12.95
2023-05-08T01:00:49.036Z,12.90
2023-05-08T01:01:49.278Z,12.86
2023-05-08T01:02:49.463Z,12.90
2023-05-08T01:03:49.732Z,12.86
2023-05-08T01:04:49.743Z,12.86
2023-05-08T01:05:49.918Z,12.85
2023-05-08T01:06:50.104Z,12.85
2023-05-08T01:07:50.278Z,12.82
2023-05-08T01:08:50.481Z,12.79
2023-05-08T01:09:50.641Z,12.83
2023-05-08T01:10:50.787Z,12.80
2023-05-08T01:11:50.978Z,12.79
2023-05-08T01:12:51.195Z,12.75
2023-05-08T01:13:51.355Z,12.78
2023-05-08T01:14:51.537Z,12.79
2023-05-08T01:15:51.753Z,12.72
2023-05-08T01:16:51.881Z,12.74
2023-05-08T01:17:52.089Z,12.74
2023-05-08T01:18:52.191Z,12.78
2023-05-08T01:19:52.376Z,12.69
2023-05-08T01:20:52.566Z,12.74
2023-05-08T01:21:52.747Z,12.71
2023-05-08T01:22:52.936Z,12.71
2023-05-08T01:23:53.118Z,12.64
2023-05-08T01:24:53.276Z,12.66
2023-05-08T01:25:53.449Z,12.64
2023-05-08T01:26:53.641Z,12.64
2023-05-08T01:27:53.824Z,12.64
2023-05-08T01:28:53.992Z,12.63
2023-05-08T01:29:54.189Z,12.63
2023-05-08T01:30:54.327Z,12.60
2023-05-08T01:31:54.525Z,12.57
2023-05-08T01:32:54.791Z,12.60
2023-05-08T01:33:54.880Z,12.56
2023-05-08T01:34:55.056Z,12.56
2023-05-08T01:35:55.231Z,12.54
2023-05-08T01:36:55.427Z,12.52
2023-05-08T01:37:55.581Z,12.54
2023-05-08T01:38:55.773Z,12.56
2023-05-08T01:39:55.935Z,12.52
2023-05-08T01:40:56.127Z,12.49
2023-05-08T01:41:56.292Z,12.48
2023-05-08T01:42:56.464Z,12.44
2023-05-08T01:43:56.616Z,12.48
2023-05-08T01:44:56.778Z,12.48
2023-05-08T01:45:56.975Z,12.45
2023-05-08T01:46:57.205Z,12.49
2023-05-08T01:47:57.387Z,12.42
2023-05-08T01:48:57.466Z,12.44
2023-05-08T01:49:57.634Z,12.46
2023-05-08T01:50:57.819Z,12.41
2023-05-08T01:51:58.116Z,12.44
2023-05-08T01:52:58.178Z,12.36
2023-05-08T01:53:58.356Z,12.42
2023-05-08T01:54:58.524Z,12.39
2023-05-08T01:55:58.691Z,12.39
2023-05-08T01:56:58.852Z,12.38
2023-05-08T01:57:59.066Z,12.38
2023-05-08T01:58:59.217Z,12.39
2023-05-08T01:59:59.390Z,12.34
2023-05-08T02:00:59.669Z,12.34
2023-05-08T02:01:59.827Z,12.34
2023-05-08T02:03:00.035Z,12.30
2023-05-08T02:04:00.216Z,12.34
2023-05-08T02:05:00.288Z,12.29
2023-05-08T02:06:00.503Z,12.27
2023-05-08T02:07:00.647Z,12.29
2023-05-08T02:08:00.796Z,12.27
2023-05-08T02:09:00.981Z,12.26
2023-05-08T02:10:01.163Z,12.24
2023-05-08T02:11:01.374Z,12.24
2023-05-08T02:12:01.506Z,12.20
2023-05-08T02:13:01.706Z,12.21
2023-05-08T02:14:01.872Z,12.20
2023-05-08T02:15:02.019Z,12.19
2023-05-08T02:16:02.215Z,12.17
2023-05-08T02:17:02.391Z,12.16
2023-05-08T02:18:02.582Z,12.13
2023-05-08T02:19:02.758Z,12.16
2023-05-08T02:20:02.875Z,12.11
2023-05-08T02:21:03.041Z,12.12
2023-05-08T02:22:03.223Z,12.12
2023-05-08T02:23:03.534Z,12.11
2023-05-08T02:24:03.586Z,12.08
2023-05-08T02:25:03.760Z,12.08
2023-05-08T02:26:03.929Z,12.04
2023-05-08T02:27:04.104Z,12.06
2023-05-08T02:28:04.444Z,12.04
2023-05-08T02:29:04.440Z,12.06
2023-05-08T02:30:04.615Z,12.06
2023-05-08T02:31:04.764Z,12.05
2023-05-08T02:32:05.013Z,12.04
2023-05-08T02:33:05.154Z,12.02
2023-05-08T02:34:05.300Z,11.99
2023-05-08T02:35:05.480Z,12.01
2023-05-08T02:36:05.665Z,12.01
2023-05-08T02:37:05.815Z,12.01
2023-05-08T02:38:05.992Z,11.99
2023-05-08T02:39:06.195Z,11.96
2023-05-08T02:40:06.375Z,11.98
2023-05-08T02:41:06.545Z,11.98
2023-05-08T02:42:06.700Z,11.96
2023-05-08T02:43:06.877Z,11.91
2023-05-08T02:44:07.073Z,11.93
2023-05-08T02:45:07.224Z,11.96
2023-05-08T02:46:07.453Z,11.91
2023-05-08T02:47:07.634Z,11.90
2023-05-08T02:48:07.798Z,11.88
2023-05-08T02:49:07.912Z,11.88
2023-05-08T02:50:08.101Z,11.84
2023-05-08T02:51:08.292Z,11.81
2023-05-08T02:52:08.492Z,11.84
2023-05-08T02:53:08.633Z,11.80
2023-05-08T02:54:08.830Z,11.80
2023-05-08T02:55:09.021Z,11.80
2023-05-08T02:56:09.163Z,11.79
2023-05-08T02:57:09.322Z,11.76
2023-05-08T02:58:09.493Z,11.75
2023-05-08T02:59:09.687Z,11.76
2023-05-08T03:00:10.113Z,11.75
2023-05-08T03:01:10.020Z,11.75
2023-05-08T03:02:10.210Z,11.72
2023-05-08T03:03:10.466Z,11.71
2023-05-08T03:04:10.547Z,11.72
2023-05-08T03:05:10.694Z,11.71
2023-05-08T03:06:10.878Z,11.69
2023-05-08T03:07:11.041Z,11.71
2023-05-08T03:08:11.240Z,11.71
2023-05-08T03:09:11.380Z,11.69
2023-05-08T03:10:11.869Z,11.71
2023-05-08T03:11:11.717Z,11.68
2023-05-08T03:12:11.900Z,11.68
2023-05-08T03:13:12.092Z,11.69
2023-05-08T03:14:12.244Z,11.68
2023-05-08T03:15:12.398Z,11.68
2023-05-08T03:16:12.587Z,11.68
2023-05-08T03:17:12.738Z,11.66
2023-05-08T03:18:12.894Z,11.65
2023-05-08T03:19:13.051Z,11.66
2023-05-08T03:20:13.461Z,11.68
2023-05-08T03:21:13.412Z,11.68
2023-05-08T03:22:13.586Z,11.66
2023-05-08T03:23:13.758Z,11.68
2023-05-08T03:24:13.918Z,11.63
2023-05-08T03:25:14.100Z,11.66
2023-05-08T03:26:14.267Z,11.65
2023-05-08T03:27:14.430Z,11.62
2023-05-08T03:28:14.584Z,11.66
2023-05-08T03:29:14.740Z,11.62
2023-05-08T03:30:15.077Z,11.63
2023-05-08T03:31:15.182Z,11.63
2023-05-08T03:32:15.285Z,11.63
2023-05-08T03:33:15.556Z,11.61
2023-05-08T03:34:15.614Z,11.61
2023-05-08T03:35:15.775Z,11.55
2023-05-08T03:36:15.995Z,11.59
2023-05-08T03:37:16.124Z,11.55
2023-05-08T03:38:16.305Z,11.61
2023-05-08T03:39:16.458Z,11.55
2023-05-08T03:40:16.638Z,11.55
2023-05-08T03:41:16.827Z,11.55
2023-05-08T03:42:16.980Z,11.57
2023-05-08T03:43:17.117Z,11.53
2023-05-08T03:44:17.309Z,11.55
2023-05-08T03:45:17.539Z,11.53
2023-05-08T03:46:17.702Z,11.55
2023-05-08T03:47:17.844Z,11.54
2023-05-08T03:48:18.032Z,11.51
2023-05-08T03:49:18.218Z,11.53
2023-05-08T03:50:18.424Z,11.50
2023-05-08T03:51:18.572Z,11.55
2023-05-08T03:52:18.762Z,11.55
2023-05-08T03:53:18.922Z,11.55
2023-05-08T03:54:19.112Z,11.55
2023-05-08T03:55:19.279Z,11.51
2023-05-08T03:56:19.439Z,11.53
2023-05-08T03:57:19.610Z,11.53
2023-05-08T03:58:19.787Z,11.54
2023-05-08T03:59:19.965Z,11.51
2023-05-08T04:00:20.149Z,11.48
2023-05-08T04:01:20.299Z,11.50
2023-05-08T04:02:20.594Z,11.48
2023-05-08T04:03:20.723Z,11.48
2023-05-08T04:04:20.947Z,11.48
2023-05-08T04:05:21.033Z,11.48
2023-05-08T04:06:21.183Z,11.48
2023-05-08T04:07:21.347Z,11.48
2023-05-08T04:08:21.515Z,11.51
2023-05-08T04:09:21.663Z,11.48
2023-05-08T04:10:21.857Z,11.51
2023-05-08T04:11:22.027Z,11.47
2023-05-08T04:12:22.191Z,11.48
2023-05-08T04:13:22.375Z,11.51
2023-05-08T04:14:22.525Z,11.54
2023-05-08T04:15:22.695Z,11.53
2023-05-08T04:16:22.905Z,11.53
2023-05-08T04:17:23.069Z,11.53
2023-05-08T04:18:23.264Z,11.53
2023-05-08T04:19:23.379Z,11.51
2023-05-08T04:20:23.547Z,11.54
2023-05-08T04:21:23.722Z,11.55
2023-05-08T04:22:23.867Z,11.55
2023-05-08T04:23:24.035Z,11.57
2023-05-08T04:24:24.223Z,11.55
2023-05-08T04:25:24.395Z,11.54
2023-05-08T04:26:24.556Z,11.55
2023-05-08T04:27:24.724Z,11.61
2023-05-08T04:28:24.883Z,11.57
2023-05-08T04:29:25.085Z,11.59
2023-05-08T04:30:25.250Z,11.62
2023-05-08T04:31:25.441Z,11.65
2023-05-08T04:32:25.588Z,11.63
2023-05-08T04:33:25.811Z,11.61
2023-05-08T04:34:25.889Z,11.63
2023-05-08T04:35:26.041Z,11.66
2023-05-08T04:36:26.213Z,11.68
2023-05-08T04:37:26.389Z,11.69
2023-05-08T04:38:26.562Z,11.68
2023-05-08T04:39:26.727Z,11.71
2023-05-08T04:40:26.879Z,11.69
2023-05-08T04:41:27.068Z,11.75
2023-05-08T04:42:27.204Z,11.76
2023-05-08T04:43:27.361Z,11.73
2023-05-08T04:44:27.516Z,11.76
2023-05-08T04:45:27.706Z,11.75
2023-05-08T04:46:27.929Z,11.80
2023-05-08T04:47:28.113Z,11.81
2023-05-08T04:48:28.233Z,11.81
2023-05-08T04:49:28.397Z,11.80
2023-05-08T04:50:28.543Z,11.83
2023-05-08T04:51:28.720Z,11.81
2023-05-08T04:52:28.938Z,11.86
2023-05-08T04:53:29.065Z,11.81
2023-05-08T04:54:29.254Z,11.84
2023-05-08T04:55:29.433Z,11.88
2023-05-08T04:56:29.625Z,11.88
2023-05-08T04:57:29.779Z,11.90
2023-05-08T04:58:29.927Z,11.88
2023-05-08T04:59:30.109Z,11.90
2023-05-08T05:00:30.278Z,11.93
2023-05-08T05:01:30.496Z,11.93
2023-05-08T05:02:30.660Z,11.91
2023-05-08T05:03:30.788Z,11.94
2023-05-08T05:04:30.951Z,11.94
2023-05-08T05:05:31.102Z,11.98
2023-05-08T05:06:31.269Z,12.01
2023-05-08T05:07:31.414Z,11.99
2023-05-08T05:08:31.603Z,12.04
2023-05-08T05:09:31.767Z,12.04
2023-05-08T05:10:31.890Z,12.02
2023-05-08T05:11:32.078Z,12.05
2023-05-08T05:12:32.214Z,12.05
2023-05-08T05:13:32.388Z,12.09
2023-05-08T05:14:32.542Z,12.09
2023-05-08T05:15:32.732Z,12.08
2023-05-08T05:16:32.959Z,12.13
2023-05-08T05:17:33.132Z,12.12
2023-05-08T05:18:33.250Z,12.16
2023-05-08T05:19:33.424Z,12.16
2023-05-08T05:20:33.580Z,12.17
2023-05-08T05:21:33.742Z,12.17
2023-05-08T05:22:33.901Z,12.20
2023-05-08T05:23:34.064Z,12.24
2023-05-08T05:24:34.234Z,12.27
2023-05-08T05:25:34.396Z,12.26
2023-05-08T05:26:36.394Z,12.29
2023-05-08T05:27:34.751Z,12.34
2023-05-08T05:28:34.914Z,12.34
2023-05-08T05:29:35.102Z,12.35
2023-05-08T05:30:35.271Z,12.36
2023-05-08T05:31:35.498Z,12.38
2023-05-08T05:32:35.690Z,12.39
2023-05-08T05:33:35.817Z,12.39
2023-05-08T05:34:35.998Z,12.45
2023-05-08T05:35:36.153Z,12.45
2023-05-08T05:36:36.367Z,12.46
2023-05-08T05:37:36.511Z,12.52
2023-05-08T05:38:36.651Z,12.54
2023-05-08T05:39:36.816Z,12.53
2023-05-08T05:40:37.001Z,12.53
2023-05-08T05:41:37.229Z,12.59
2023-05-08T05:42:37.364Z,12.59
2023-05-08T05:43:37.524Z,12.57
2023-05-08T05:44:37.708Z,12.63
2023-05-08T05:45:37.864Z,12.63
2023-05-08T05:46:38.116Z,12.67
2023-05-08T05:47:38.211Z,12.71
2023-05-08T05:48:38.354Z,12.74
2023-05-08T05:49:38.508Z,12.74
2023-05-08T05:50:38.694Z,12.78
2023-05-08T05:51:38.863Z,12.80
2023-05-08T05:52:39.016Z,12.83
2023-05-08T05:53:39.166Z,12.83
2023-05-08T05:54:39.344Z,12.85
2023-05-08T05:55:39.512Z,12.86
2023-05-08T05:56:39.674Z,12.87
2023-05-08T05:57:39.820Z,12.86
2023-05-08T05:58:39.984Z,12.94
2023-05-08T05:59:40.178Z,12.94
2023-05-08T06:00:40.315Z,12.95
2023-05-08T06:01:40.502Z,12.98
2023-05-08T06:02:40.750Z,12.97
2023-05-08T06:03:40.906Z,13.03
2023-05-08T06:04:40.969Z,13.03
2023-05-08T06:05:41.137Z,13.04
2023-05-08T06:06:41.302Z,13.09
2023-05-08T06:07:41.484Z,13.11
2023-05-08T06:08:41.655Z,13.13
2023-05-08T06:09:41.874Z,13.15
2023-05-08T06:10:41.995Z,13.19
2023-05-08T06:11:42.182Z,13.22
2023-05-08T06:12:42.408Z,13.23
2023-05-08T06:13:42.510Z,13.23
2023-05-08T06:14:42.704Z,13.27
2023-05-08T06:15:42.862Z,13.28
2023-05-08T06:16:43.041Z,13.30
2023-05-08T06:17:43.221Z,13.34
2023-05-08T06:18:43.331Z,13.34
2023-05-08T06:19:43.501Z,13.43
2023-05-08T06:20:43.728Z,13.43
2023-05-08T06:21:43.867Z,13.44
2023-05-08T06:22:44.077Z,13.49
2023-05-08T06:23:44.243Z,13.51
2023-05-08T06:24:44.395Z,13.51
2023-05-08T06:25:44.562Z,13.51
2023-05-08T06:26:44.714Z,13.56
2023-05-08T06:27:44.908Z,13.58
2023-05-08T06:28:45.037Z,13.64
2023-05-08T06:29:45.195Z,13.64
2023-05-08T06:30:45.410Z,13.64
2023-05-08T06:31:45.602Z,13.70
2023-05-08T06:32:45.748Z,13.73
2023-05-08T06:33:45.898Z,13.80
2023-05-08T06:34:46.222Z,13.80
2023-05-08T06:35:46.250Z,13.86
2023-05-08T06:36:46.422Z,13.96
2023-05-08T06:37:46.596Z,13.99
2023-05-08T06:38:46.742Z,14.08
2023-05-08T06:39:48.976Z,14.22
2023-05-08T06:40:47.097Z,14.27
2023-05-08T06:41:47.258Z,14.33
2023-05-08T06:42:47.425Z,14.42
2023-05-08T06:43:47.587Z,14.47
2023-05-08T06:44:47.751Z,14.54
2023-05-08T06:45:47.909Z,14.59
2023-05-08T06:46:48.390Z,14.67
2023-05-08T06:47:48.345Z,14.70
2023-05-08T06:48:48.441Z,14.77
2023-05-08T06:49:48.619Z,14.81
2023-05-08T06:50:48.761Z,14.87
2023-05-08T06:51:48.947Z,14.91
2023-05-08T06:52:49.114Z,14.99
2023-05-08T06:53:49.275Z,15.03
2023-05-08T06:54:49.441Z,15.07
2023-05-08T06:55:49.606Z,15.15
2023-05-08T06:56:49.793Z,15.17
2023-05-08T06:57:49.950Z,15.22
2023-05-08T06:59:00.464Z,15.32
2023-05-08T06:59:51.271Z,15.32
2023-05-08T07:00:50.469Z,15.35
2023-05-08T07:01:50.719Z,15.43
2023-05-08T07:02:50.853Z,15.46
2023-05-08T07:03:50.989Z,15.54
2023-05-08T07:04:51.195Z,15.57
2023-05-08T07:05:51.376Z,15.65
2023-05-08T07:06:51.497Z,15.65
2023-05-08T07:07:51.670Z,15.71
2023-05-08T07:08:51.861Z,15.73
2023-05-08T07:09:52.021Z,15.80
2023-05-08T07:10:52.209Z,15.84
2023-05-08T07:11:52.339Z,15.91
2023-05-08T07:12:52.635Z,15.89
2023-05-08T07:13:52.719Z,15.91
2023-05-08T07:14:53.496Z,15.95
2023-05-08T07:15:53.072Z,15.99
2023-05-08T07:16:53.193Z,15.99
2023-05-08T07:17:53.454Z,16.02
2023-05-08T07:18:53.529Z,16.05
2023-05-08T07:19:53.730Z,16.10
2023-05-08T07:20:53.906Z,16.14
2023-05-08T07:21:54.127Z,16.17
2023-05-08T07:22:54.223Z,16.17
2023-05-08T07:23:54.373Z,16.28
2023-05-08T07:24:54.557Z,16.26
2023-05-08T07:25:54.748Z,16.35
2023-05-08T07:26:54.917Z,16.36
2023-05-08T07:27:55.106Z,16.44
2023-05-08T07:28:55.265Z,16.47
2023-05-08T07:29:55.471Z,16.49
2023-05-08T07:30:55.614Z,16.54
2023-05-08T07:31:55.859Z,16.59
2023-05-08T07:32:55.988Z,16.64
2023-05-08T07:33:56.128Z,16.69
2023-05-08T07:34:56.308Z,16.71
2023-05-08T07:35:56.482Z,16.84
2023-05-08T07:36:56.641Z,16.84
2023-05-08T07:37:56.859Z,16.89
2023-05-08T07:38:57.032Z,16.91
2023-05-08T07:39:57.172Z,16.97
2023-05-08T07:40:57.533Z,16.97
2023-05-08T07:41:57.519Z,17.02
2023-05-08T07:42:57.697Z,17.09
2023-05-08T07:43:57.845Z,17.13
2023-05-08T07:44:58.022Z,17.17
2023-05-08T07:45:58.204Z,17.24
2023-05-08T07:46:58.410Z,17.28
2023-05-08T07:47:58.686Z,17.32
2023-05-08T07:48:58.700Z,17.35
2023-05-08T07:49:58.856Z,17.38
2023-05-08T07:50:59.047Z,17.43
2023-05-08T07:51:59.219Z,17.45
2023-05-08T07:52:59.341Z,17.49
2023-05-08T07:53:59.545Z,17.53
2023-05-08T07:54:59.698Z,17.53
2023-05-08T07:55:59.905Z,17.61
2023-05-08T07:57:00.007Z,17.67
2023-05-08T07:58:00.194Z,17.68
2023-05-08T07:59:00.393Z,17.72
2023-05-08T08:00:00.562Z,17.76
2023-05-08T08:01:00.724Z,17.82
2023-05-08T08:02:00.914Z,17.82
2023-05-08T08:03:01.136Z,17.89
2023-05-08T08:04:01.331Z,17.92
2023-05-08T08:05:01.390Z,17.95
2023-05-08T08:06:01.574Z,18.00
2023-05-08T08:07:01.733Z,18.04
2023-05-08T08:08:01.942Z,18.05
2023-05-08T08:09:02.107Z,18.13
2023-05-08T08:10:02.281Z,18.16
2023-05-08T08:11:03.831Z,18.19
2023-05-08T08:12:02.629Z,18.23
2023-05-08T08:13:02.806Z,18.25
2023-05-08T08:14:02.956Z,18.31
2023-05-08T08:15:03.156Z,18.33
2023-05-08T08:16:03.321Z,18.34
2023-05-08T08:17:03.600Z,18.40
2023-05-08T08:18:03.768Z,18.40
2023-05-08T08:19:03.905Z,18.44
2023-05-08T08:20:04.035Z,18.46
2023-05-08T08:21:04.207Z,18.53
2023-05-08T08:22:04.366Z,18.53
2023-05-08T08:23:04.534Z,18.57
2023-05-08T08:24:04.735Z,18.66
2023-05-08T08:25:04.877Z,18.69
2023-05-08T08:26:05.085Z,18.72
2023-05-08T08:27:05.243Z,18.75
2023-05-08T08:28:05.378Z,18.78
2023-05-08T08:29:05.580Z,18.83
2023-05-08T08:30:16.722Z,18.87
2023-05-08T08:31:06.961Z,18.85
2023-05-08T08:32:06.069Z,18.96
2023-05-08T08:33:06.430Z,18.98
2023-05-08T08:34:06.428Z,19.05
2023-05-08T08:35:06.581Z,19.05
2023-05-08T08:36:06.758Z,19.11
2023-05-08T08:37:06.958Z,19.15
2023-05-08T08:38:07.112Z,19.16
2023-05-08T08:39:09.574Z,19.21
2023-05-08T08:40:07.564Z,19.28
2023-05-08T08:41:07.651Z,19.33
2023-05-08T08:42:07.815Z,19.37
2023-05-08T08:43:07.977Z,19.43
2023-05-08T08:44:08.136Z,19.48
2023-05-08T08:45:08.305Z,19.51
2023-05-08T08:46:08.488Z,19.55
2023-05-08T08:47:08.628Z,19.58
2023-05-08T08:48:08.836Z,19.63
2023-05-08T08:49:08.986Z,19.70
2023-05-08T08:50:10.711Z,19.73
2023-05-08T08:51:09.295Z,19.75
2023-05-08T08:52:09.496Z,19.83
2023-05-08T08:53:09.641Z,19.86
2023-05-08T08:54:09.794Z,19.93
2023-05-08T08:55:09.961Z,19.98
2023-05-08T08:56:10.120Z,20.01
2023-05-08T08:57:10.327Z,20.04
2023-05-08T08:58:10.476Z,20.08
2023-05-08T08:59:10.656Z,20.14
2023-05-08T09:00:10.818Z,20.15
2023-05-08T09:01:10.998Z,20.20
2023-05-08T09:02:11.200Z,20.23
2023-05-08T09:03:11.502Z,20.27
2023-05-08T09:04:11.658Z,20.29
2023-05-08T09:05:11.857Z,20.35
2023-05-08T09:06:11.915Z,20.39
2023-05-08T09:07:12.071Z,20.39
2023-05-08T09:08:12.226Z,20.45
2023-05-08T09:09:12.421Z,20.46
2023-05-08T09:10:12.596Z,20.49
2023-05-08T09:11:12.774Z,20.52
2023-05-08T09:12:12.943Z,20.60
2023-05-08T09:13:13.211Z,20.61
2023-05-08T09:14:13.288Z,20.64
2023-05-08T09:15:13.726Z,20.72
2023-05-08T09:16:13.672Z,20.75
2023-05-08T09:17:13.798Z,20.78
2023-05-08T09:18:13.976Z,20.82
2023-05-08T09:19:14.139Z,20.81
2023-05-08T09:20:14.525Z,20.88
2023-05-08T09:21:14.516Z,20.93
2023-05-08T09:22:14.668Z,20.99
2023-05-08T09:23:14.830Z,21.01
2023-05-08T09:24:14.993Z,21.04
2023-05-08T09:25:15.334Z,21.11
2023-05-08T09:26:15.329Z,21.12
2023-05-08T09:27:15.519Z,21.18
2023-05-08T09:28:15.682Z,21.19
2023-05-08T09:29:15.861Z,21.25
2023-05-08T09:30:16.036Z,21.34
2023-05-08T09:31:16.201Z,21.38
2023-05-08T09:32:16.333Z,21.41
2023-05-08T09:33:16.490Z,21.47
2023-05-08T09:34:16.662Z,21.53
2023-05-08T09:35:17.132Z,21.56
2023-05-08T09:36:17.000Z,21.60
2023-05-08T09:37:17.201Z,21.68
2023-05-08T09:38:17.375Z,21.77
2023-05-08T09:39:17.532Z,21.81
2023-05-08T09:40:17.750Z,21.87
2023-05-08T09:41:17.895Z,21.92
2023-05-08T09:42:18.040Z,21.99
2023-05-08T09:43:18.234Z,22.05
2023-05-08T09:44:18.372Z,22.11
2023-05-08T09:45:18.538Z,22.16
2023-05-08T09:46:18.783Z,22.23
2023-05-08T09:47:18.949Z,22.30
2023-05-08T09:48:19.082Z,22.34
2023-05-08T09:49:19.257Z,22.42
2023-05-08T09:50:19.455Z,22.51
2023-05-08T09:51:19.636Z,22.56
2023-05-08T09:52:19.781Z,22.66
2023-05-08T09:53:19.922Z,22.71
2023-05-08T09:54:20.079Z,22.79
2023-05-08T09:55:20.286Z,22.86
2023-05-08T09:56:20.429Z,22.93
2023-05-08T09:57:20.625Z,23.01
2023-05-08T09:58:20.789Z,23.08
2023-05-08T09:59:20.988Z,23.17
2023-05-08T10:00:21.142Z,23.19
2023-05-08T10:01:21.359Z,23.31
2023-05-08T10:02:21.548Z,23.35
2023-05-08T10:03:21.781Z,23.42
2023-05-08T10:04:21.834Z,23.48
2023-05-08T10:05:22.111Z,23.56
2023-05-08T10:06:22.211Z,23.63
2023-05-08T10:07:22.423Z,23.69
2023-05-08T10:08:22.576Z,23.74
2023-05-08T10:09:22.744Z,23.82
2023-05-08T10:10:22.901Z,23.86
2023-05-08T10:11:23.109Z,23.94
2023-05-08T10:12:23.252Z,24.00
2023-05-08T10:13:23.522Z,24.06
2023-05-08T10:14:23.597Z,24.13
2023-05-08T10:15:23.782Z,24.19
2023-05-08T10:16:23.976Z,24.24
2023-05-08T10:17:24.183Z,24.29
2023-05-08T10:18:24.319Z,24.35
2023-05-08T10:19:24.496Z,24.39
2023-05-08T10:20:24.649Z,24.47
2023-05-08T10:21:24.836Z,24.50
2023-05-08T10:22:24.976Z,24.56
2023-05-08T10:23:25.149Z,24.59
2023-05-08T10:24:25.299Z,24.68
2023-05-08T10:25:25.511Z,24.73
2023-05-08T10:26:25.618Z,24.81
2023-05-08T10:27:25.813Z,24.86
2023-05-08T10:28:25.966Z,24.90
2023-05-08T10:29:26.159Z,24.91
2023-05-08T10:30:26.377Z,24.97
2023-05-08T10:31:26.516Z,25.01
2023-05-08T10:32:26.698Z,25.03
2023-05-08T10:33:27.657Z,25.06
2023-05-08T10:34:26.984Z,25.08
2023-05-08T10:35:27.196Z,25.13
2023-05-08T10:36:28.487Z,25.16
2023-05-08T10:37:27.485Z,25.21
2023-05-08T10:38:27.645Z,25.25
2023-05-08T10:39:27.856Z,25.28
2023-05-08T10:40:28.017Z,25.28
2023-05-08T10:41:28.193Z,25.38
2023-05-08T10:42:28.391Z,25.42
2023-05-08T10:43:28.549Z,25.45
2023-05-08T10:44:28.720Z,25.48
2023-05-08T10:45:28.864Z,25.53
2023-05-08T10:46:29.063Z,25.61
2023-05-08T10:47:29.244Z,25.63
2023-05-08T10:48:29.373Z,25.66
2023-05-08T10:49:29.553Z,25.74
2023-05-08T10:50:29.717Z,25.80
2023-05-08T10:51:29.890Z,25.87
2023-05-08T10:52:30.076Z,25.88
2023-05-08T10:53:30.237Z,25.93
2023-05-08T10:54:30.416Z,26.02
2023-05-08T10:55:30.573Z,26.06
2023-05-08T10:56:30.718Z,26.09
2023-05-08T10:57:30.888Z,26.13
2023-05-08T10:58:31.075Z,26.20
2023-05-08T10:59:31.238Z,26.24
2023-05-08T11:00:31.405Z,26.32
2023-05-08T11:01:31.674Z,26.33
2023-05-08T11:02:31.889Z,26.39
2023-05-08T11:03:33.278Z,26.43
2023-05-08T11:04:32.106Z,26.48
2023-05-08T11:05:32.282Z,26.55
2023-05-08T11:06:32.480Z,26.58
2023-05-08T11:07:32.628Z,26.58
2023-05-08T11:08:32.819Z,26.64
2023-05-08T11:09:32.949Z,26.67
2023-05-08T11:10:33.156Z,26.72
2023-05-08T11:11:33.302Z,26.74
2023-05-08T11:12:33.456Z,26.76
2023-05-08T11:13:33.648Z,26.82
2023-05-08T11:14:33.813Z,26.89
2023-05-08T11:15:33.953Z,26.92
2023-05-08T11:16:34.211Z,27.00
2023-05-08T11:17:34.385Z,26.98
2023-05-08T11:18:48.432Z,27.07
2023-05-08T11:19:35.673Z,27.12
2023-05-08T11:20:34.811Z,27.14
2023-05-08T11:21:35.007Z,27.20
2023-05-08T11:22:35.195Z,27.25
2023-05-08T11:23:35.363Z,27.29
2023-05-08T11:24:35.571Z,27.33
2023-05-08T11:25:35.711Z,27.41
2023-05-08T11:26:35.897Z,27.42
2023-05-08T11:27:36.086Z,27.49
2023-05-08T11:28:36.251Z,27.54
2023-05-08T11:29:36.432Z,27.58
2023-05-08T11:30:36.570Z,27.63
2023-05-08T11:31:36.767Z,27.69
2023-05-08T11:32:36.993Z,27.74
2023-05-08T11:33:37.110Z,27.78
2023-05-08T11:34:37.291Z,27.82
2023-05-08T11:35:37.449Z,27.81
2023-05-08T11:36:37.623Z,27.88
2023-05-08T11:37:37.835Z,27.91
2023-05-08T11:38:37.977Z,27.95
2023-05-08T11:39:38.166Z,28.01
2023-05-08T11:40:38.352Z,28.04
2023-05-08T11:41:38.497Z,28.07
2023-05-08T11:42:38.646Z,28.15
2023-05-08T11:43:38.815Z,28.16
2023-05-08T11:44:38.988Z,28.19
2023-05-08T11:45:39.186Z,28.23
2023-05-08T11:46:39.498Z,28.29
2023-05-08T11:47:39.645Z,28.32
2023-05-08T11:48:39.692Z,28.36
2023-05-08T11:49:39.834Z,28.42
2023-05-08T11:50:40.018Z,28.44
2023-05-08T11:51:40.155Z,28.49
2023-05-08T11:52:40.312Z,28.53
2023-05-08T11:53:40.486Z,28.54
2023-05-08T11:54:40.634Z,28.61
2023-05-08T11:55:40.812Z,28.64
2023-05-08T11:56:41.002Z,28.66
2023-05-08T11:57:41.159Z,28.72
2023-05-08T11:58:41.296Z,28.78
2023-05-08T11:59:41.478Z,28.81
2023-05-08T12:00:41.690Z,28.83
2023-05-08T12:01:42.463Z,28.83
2023-05-08T12:02:42.089Z,28.91
2023-05-08T12:03:42.335Z,28.94
2023-05-08T12:04:42.398Z,29.00
2023-05-08T12:05:42.571Z,29.03
2023-05-08T12:06:42.737Z,29.04
2023-05-08T12:07:42.907Z,29.07
2023-05-08T12:08:43.100Z,29.13
2023-05-08T12:09:43.298Z,29.16
2023-05-08T12:10:44.977Z,29.20
2023-05-08T12:11:43.619Z,29.23
2023-05-08T12:12:43.875Z,29.30
2023-05-08T12:13:43.974Z,29.32
2023-05-08T12:14:44.113Z,29.40
2023-05-08T12:15:44.305Z,29.46
2023-05-08T12:16:44.516Z,29.49
2023-05-08T12:17:44.679Z,29.53
2023-05-08T12:18:44.816Z,29.54
2023-05-08T12:19:44.985Z,29.56
2023-05-08T12:20:45.162Z,29.57
2023-05-08T12:21:45.305Z,29.59
2023-05-08T12:22:45.498Z,29.64
2023-05-08T12:23:45.655Z,29.67
2023-05-08T12:24:45.810Z,29.69
2023-05-08T12:25:46.025Z,29.76
2023-05-08T12:26:46.182Z,29.79
2023-05-08T12:27:46.362Z,29.87
2023-05-08T12:28:46.558Z,29.90
2023-05-08T12:29:46.723Z,29.99
2023-05-08T12:30:46.905Z,30.03
2023-05-08T12:31:47.121Z,30.09
2023-05-08T12:32:47.244Z,30.13
2023-05-08T12:33:47.392Z,30.22
2023-05-08T12:34:47.577Z,30.25
2023-05-08T12:35:47.794Z,30.32
2023-05-08T12:36:47.972Z,30.39
2023-05-08T12:37:48.116Z,30.46
2023-05-08T12:38:48.276Z,30.50
2023-05-08T12:39:48.443Z,30.51
2023-05-08T12:40:48.595Z,30.62
2023-05-08T12:41:48.804Z,30.65
2023-05-08T12:42:48.953Z,30.69
2023-05-08T12:43:49.170Z,30.76
2023-05-08T12:44:49.302Z,30.84
2023-05-08T12:45:49.489Z,30.91
2023-05-08T12:46:49.687Z,30.96
2023-05-08T12:47:49.845Z,31.06
2023-05-08T12:48:50.042Z,31.12
2023-05-08T12:49:50.171Z,31.18
2023-05-08T12:50:50.327Z,31.26
2023-05-08T12:51:50.514Z,31.29
2023-05-08T12:52:51.824Z,31.37
2023-05-08T12:53:50.836Z,31.43
2023-05-08T12:54:51.008Z,31.47